Time;durP1;ratioP1;P1;durP2;ratioP2;P2;SDS_P1;SDS_P2;PMS_P1;PMS_P2;Temp;Humidity;BMP_temperature;BMP_pressure;BME280_temperature;BME280_humidity;BME280_pressure;Samples;Min_cycle;Max_cycle;Signal;HPM_P1;HPM_P2
2021/07/04 00:02:26;;;;;;;7.00;6.30;;;19.90;99.90;;;;;;5050854;28;20490;-73
2021/07/04 00:05:15;;;;;;;9.60;5.70;;;19.80;99.90;;;;;;5049853;28;20520;-74
2021/07/04 00:08:01;;;;;;;7.23;6.00;;;19.80;99.90;;;;;;5030059;28;20942;-73
2021/07/04 00:10:51;;;;;;;8.00;6.20;;;19.70;99.90;;;;;;5058172;28;20500;-73
2021/07/04 00:13:39;;;;;;;8.10;6.33;;;19.60;99.90;;;;;;5044972;28;20769;-73
2021/07/04 00:16:25;;;;;;;10.43;6.17;;;19.70;99.90;;;;;;5053679;28;20961;-73
2021/07/04 00:19:10;;;;;;;6.73;5.83;;;19.60;99.90;;;;;;5054738;28;20467;-73
2021/07/04 00:21:56;;;;;;;10.23;6.17;;;19.70;99.90;;;;;;5054765;28;20479;-73
2021/07/04 00:24:42;;;;;;;8.10;6.00;;;19.70;99.90;;;;;;5054277;28;20423;-73
2021/07/04 00:27:29;;;;;;;7.80;6.30;;;19.70;99.90;;;;;;5054455;28;20431;-73
2021/07/04 00:30:16;;;;;;;7.40;6.50;;;19.70;99.90;;;;;;5054726;28;20502;-73
2021/07/04 00:33:02;;;;;;;7.83;7.03;;;19.70;99.90;;;;;;5054409;28;20429;-73
2021/07/04 00:35:48;;;;;;;9.30;5.50;;;19.70;99.90;;;;;;5054343;28;20932;-73
2021/07/04 00:38:35;;;;;;;6.97;6.20;;;19.60;99.90;;;;;;5054035;28;20561;-73
2021/07/04 00:41:20;;;;;;;9.33;6.33;;;19.50;99.90;;;;;;5061816;28;20538;-73
2021/07/04 00:44:08;;;;;;;6.87;5.97;;;19.40;99.90;;;;;;5064879;28;20455;-73
2021/07/04 00:46:54;;;;;;;7.53;5.30;;;19.30;99.90;;;;;;5054427;28;20501;-74
2021/07/04 00:49:39;;;;;;;7.00;6.13;;;19.20;99.90;;;;;;5053800;28;20451;-73
2021/07/04 00:52:25;;;;;;;10.03;6.13;;;19.10;99.90;;;;;;5054249;28;20446;-73
2021/07/04 00:55:13;;;;;;;9.50;6.60;;;19.10;99.90;;;;;;5053387;28;20439;-74
2021/07/04 00:57:58;;;;;;;7.03;6.20;;;19.00;99.90;;;;;;5053866;28;20438;-74
2021/07/04 01:00:45;;;;;;;8.73;5.90;;;19.00;99.90;;;;;;5054091;28;21120;-73
2021/07/04 01:03:31;;;;;;;6.53;5.33;;;19.00;99.90;;;;;;5053885;28;20538;-74
2021/07/04 01:06:17;;;;;;;10.33;6.60;;;18.90;99.90;;;;;;5053684;28;21004;-73
2021/07/04 01:09:03;;;;;;;8.27;6.27;;;18.90;99.90;;;;;;5052101;28;20552;-74
2021/07/04 01:11:49;;;;;;;9.23;5.90;;;18.80;99.90;;;;;;5057307;28;20561;-74
2021/07/04 01:14:35;;;;;;;8.17;5.53;;;18.80;99.90;;;;;;5053333;28;20431;-73
2021/07/04 01:17:22;;;;;;;7.90;6.07;;;18.80;99.90;;;;;;5052991;28;20838;-73
2021/07/04 01:20:09;;;;;;;7.93;7.13;;;18.70;99.90;;;;;;5053136;28;20549;-73
2021/07/04 01:22:58;;;;;;;7.27;6.43;;;18.60;99.90;;;;;;5053721;28;20802;-74
2021/07/04 01:25:47;;;;;;;6.43;5.70;;;18.60;99.90;;;;;;5033667;28;20422;-74
2021/07/04 01:28:32;;;;;;;5.97;5.37;;;18.60;99.90;;;;;;5048978;28;20411;-74
2021/07/04 01:31:18;;;;;;;9.97;6.70;;;18.50;99.90;;;;;;5053632;28;20505;-73
2021/07/04 01:34:03;;;;;;;9.40;6.57;;;18.50;99.90;;;;;;5053154;28;20610;-73
2021/07/04 01:36:49;;;;;;;11.93;6.57;;;18.50;99.90;;;;;;5048541;28;20430;-74
2021/07/04 01:39:36;;;;;;;6.83;5.60;;;18.40;99.90;;;;;;5053219;28;20472;-74
2021/07/04 01:42:22;;;;;;;6.10;5.17;;;18.40;99.90;;;;;;5063929;28;20439;-73
2021/07/04 01:45:08;;;;;;;5.93;5.33;;;18.40;99.90;;;;;;5053242;28;20486;-73
2021/07/04 01:47:55;;;;;;;13.93;6.47;;;18.40;99.90;;;;;;5053178;28;20531;-73
2021/07/04 01:50:43;;;;;;;6.23;5.60;;;18.40;99.90;;;;;;5053777;28;20789;-73
2021/07/04 01:53:30;;;;;;;10.07;5.93;;;18.50;99.90;;;;;;5098363;22;20576;-73
2021/07/04 01:56:17;;;;;;;9.43;5.80;;;18.60;99.90;;;;;;5072931;28;21252;-74
2021/07/04 01:59:04;;;;;;;11.47;6.20;;;18.50;99.90;;;;;;5062657;28;20461;-74
2021/07/04 02:01:49;;;;;;;6.43;5.73;;;18.50;99.90;;;;;;5072261;28;20823;-75
2021/07/04 02:04:39;;;;;;;9.23;6.27;;;18.50;99.90;;;;;;5072454;28;20465;-73
2021/07/04 02:07:25;;;;;;;6.63;5.97;;;18.50;99.90;;;;;;5072064;28;20412;-73
2021/07/04 02:10:15;;;;;;;6.80;5.70;;;18.40;99.90;;;;;;5076724;28;20492;-73
2021/07/04 02:13:04;;;;;;;7.00;5.90;;;18.40;99.90;;;;;;5067821;28;20430;-74
2021/07/04 02:15:49;;;;;;;8.10;5.97;;;18.50;99.90;;;;;;5070560;28;20570;-73
2021/07/04 02:18:35;;;;;;;8.40;5.57;;;18.60;99.90;;;;;;5072606;28;20869;-74
2021/07/04 02:21:21;;;;;;;7.27;5.90;;;18.50;99.90;;;;;;5072439;28;20488;-73
2021/07/04 02:24:06;;;;;;;7.20;5.83;;;18.40;99.90;;;;;;5072726;28;20462;-74
2021/07/04 02:26:52;;;;;;;6.47;5.53;;;18.30;99.90;;;;;;5056098;28;20401;-74
2021/07/04 02:29:40;;;;;;;8.10;5.70;;;18.30;99.90;;;;;;5072498;28;20509;-74
2021/07/04 02:32:25;;;;;;;7.87;5.70;;;18.30;99.90;;;;;;5071099;28;20468;-73
2021/07/04 02:35:12;;;;;;;7.97;5.90;;;18.30;99.90;;;;;;5072020;28;20442;-73
2021/07/04 02:37:58;;;;;;;6.47;5.87;;;18.20;99.90;;;;;;5072022;28;20931;-74
2021/07/04 02:40:43;;;;;;;8.27;5.70;;;18.20;99.90;;;;;;5076748;28;20450;-74
2021/07/04 02:43:29;;;;;;;6.17;5.43;;;18.20;99.90;;;;;;5071779;28;20881;-74
2021/07/04 02:46:17;;;;;;;9.33;5.40;;;18.30;99.90;;;;;;5071680;28;20441;-74
2021/07/04 02:49:02;;;;;;;6.90;6.03;;;18.40;99.90;;;;;;5052021;28;20508;-73
2021/07/04 02:51:48;;;;;;;6.57;5.07;;;18.40;99.90;;;;;;5072007;28;20433;-73
2021/07/04 02:54:34;;;;;;;7.40;5.83;;;18.40;99.90;;;;;;5071162;28;20596;-74
2021/07/04 02:57:20;;;;;;;5.87;5.27;;;18.40;99.90;;;;;;5071810;28;20501;-73
2021/07/04 03:00:07;;;;;;;7.30;5.83;;;18.30;99.90;;;;;;5071648;28;20473;-74
2021/07/04 03:02:55;;;;;;;8.50;5.70;;;18.30;99.90;;;;;;5072001;28;21254;-73
2021/07/04 03:05:41;;;;;;;6.37;5.77;;;18.20;99.90;;;;;;5071059;28;20446;-74
2021/07/04 03:08:26;;;;;;;7.60;6.40;;;18.20;99.90;;;;;;5071271;28;20512;-73
2021/07/04 03:11:12;;;;;;;9.13;6.00;;;18.30;99.90;;;;;;5067706;28;20437;-74
2021/07/04 03:13:58;;;;;;;7.63;6.37;;;18.30;99.90;;;;;;5071561;28;20458;-74
2021/07/04 03:16:43;;;;;;;12.23;6.23;;;18.30;99.90;;;;;;5070541;28;20520;-74
2021/07/04 03:19:31;;;;;;;12.70;5.80;;;18.40;99.90;;;;;;5052255;28;20525;-74
2021/07/04 03:22:17;;;;;;;6.03;5.27;;;18.40;99.90;;;;;;5071425;28;20790;-74
2021/07/04 03:25:04;;;;;;;6.10;5.27;;;18.30;99.90;;;;;;5071035;28;20609;-74
2021/07/04 03:27:50;;;;;;;6.07;5.47;;;18.30;99.90;;;;;;5071214;28;20524;-75
2021/07/04 03:30:36;;;;;;;14.93;6.27;;;18.30;99.90;;;;;;5071330;28;20555;-74
2021/07/04 03:33:21;;;;;;;6.20;5.47;;;18.30;99.90;;;;;;5070180;28;20989;-74
2021/07/04 03:36:09;;;;;;;8.70;6.07;;;18.20;99.90;;;;;;5069935;28;20455;-74
2021/07/04 03:38:54;;;;;;;7.30;5.53;;;18.30;99.90;;;;;;5072145;28;20463;-74
2021/07/04 03:41:40;;;;;;;6.23;5.60;;;18.20;99.90;;;;;;5068678;28;20414;-75
2021/07/04 03:44:26;;;;;;;9.20;6.40;;;18.10;99.90;;;;;;5067356;28;20445;-74
2021/07/04 03:47:12;;;;;;;9.00;6.27;;;18.10;99.90;;;;;;5071152;28;20417;-74
2021/07/04 03:49:58;;;;;;;8.10;5.93;;;18.10;99.90;;;;;;5068435;28;20437;-73
2021/07/04 03:52:45;;;;;;;7.30;6.50;;;18.20;99.90;;;;;;5051479;28;20402;-74
2021/07/04 03:55:32;;;;;;;7.57;6.50;;;18.30;99.90;;;;;;5060018;28;20447;-74
2021/07/04 03:58:17;;;;;;;9.50;6.50;;;18.30;99.90;;;;;;5070849;28;20458;-74
2021/07/04 04:01:03;;;;;;;9.17;6.20;;;18.30;99.90;;;;;;5070663;28;20434;-73
2021/07/04 04:03:50;;;;;;;8.80;5.80;;;18.40;99.90;;;;;;5070932;28;20555;-74
2021/07/04 04:06:36;;;;;;;5.77;5.20;;;18.50;99.90;;;;;;5067814;28;20503;-73
2021/07/04 04:09:23;;;;;;;8.80;4.67;;;18.50;99.90;;;;;;5072278;28;20421;-75
2021/07/04 04:12:09;;;;;;;6.63;5.60;;;18.50;99.90;;;;;;5066883;28;20409;-73
2021/07/04 04:14:54;;;;;;;8.10;5.63;;;18.60;99.90;;;;;;5050619;28;20437;-74
2021/07/04 04:17:40;;;;;;;9.00;6.47;;;18.60;99.90;;;;;;5058472;28;20431;-74
2021/07/04 04:20:26;;;;;;;7.53;5.87;;;18.60;99.90;;;;;;5068870;28;20478;-74
2021/07/04 04:23:11;;;;;;;5.93;5.33;;;18.70;99.90;;;;;;5070616;28;20442;-74
2021/07/04 04:25:58;;;;;;;7.20;6.10;;;18.60;99.90;;;;;;5070229;28;20427;-74
2021/07/04 04:28:44;;;;;;;7.73;5.90;;;18.60;99.90;;;;;;5067211;28;20431;-75
2021/07/04 04:31:29;;;;;;;8.93;6.47;;;18.60;99.90;;;;;;5070438;28;20417;-74
2021/07/04 04:34:16;;;;;;;13.50;7.10;;;18.60;99.90;;;;;;5070640;28;20442;-74
2021/07/04 04:37:02;;;;;;;8.33;5.93;;;18.60;99.90;;;;;;5052963;28;20440;-74
2021/07/04 04:39:48;;;;;;;7.13;6.03;;;18.60;99.90;;;;;;5064644;28;20474;-74
2021/07/04 04:42:35;;;;;;;10.37;6.33;;;18.70;99.90;;;;;;5070485;28;20439;-75
2021/07/04 04:45:21;;;;;;;6.70;5.83;;;18.70;99.90;;;;;;5069879;28;20555;-74
2021/07/04 04:48:07;;;;;;;7.80;6.20;;;18.80;99.90;;;;;;5070397;28;20492;-74
2021/07/04 04:50:52;;;;;;;8.47;6.43;;;18.80;99.90;;;;;;5070391;28;20483;-74
2021/07/04 04:53:38;;;;;;;7.67;6.83;;;18.90;99.90;;;;;;5070647;28;20994;-75
2021/07/04 04:56:24;;;;;;;9.20;7.27;;;18.80;99.90;;;;;;5072003;28;20444;-74
2021/07/04 04:59:11;;;;;;;7.90;5.80;;;18.80;99.90;;;;;;5074018;28;20597;-74
2021/07/04 05:01:57;;;;;;;10.27;6.70;;;18.80;99.90;;;;;;5073813;28;20573;-74
2021/07/04 05:04:43;;;;;;;9.13;5.70;;;18.90;99.90;;;;;;5073356;28;20562;-75
2021/07/04 05:07:28;;;;;;;10.53;5.90;;;19.00;99.90;;;;;;5073566;28;20437;-74
2021/07/04 05:10:14;;;;;;;7.80;6.43;;;19.00;99.90;;;;;;5078295;28;20454;-73
2021/07/04 05:13:00;;;;;;;8.33;6.50;;;19.10;99.90;;;;;;5073473;28;20466;-73
2021/07/04 05:15:47;;;;;;;11.30;6.27;;;19.10;99.90;;;;;;5073551;28;20485;-74
2021/07/04 05:18:33;;;;;;;7.50;6.23;;;19.20;99.90;;;;;;5073402;28;20430;-74
2021/07/04 05:21:19;;;;;;;7.10;6.40;;;19.20;99.90;;;;;;5067239;28;20540;-74
2021/07/04 05:24:07;;;;;;;6.90;5.90;;;19.30;99.90;;;;;;5073330;28;20452;-74
2021/07/04 05:26:52;;;;;;;6.80;6.10;;;19.30;99.90;;;;;;5073662;28;20442;-74
2021/07/04 05:29:38;;;;;;;9.57;7.17;;;19.40;99.90;;;;;;5073444;28;20399;-73
2021/07/04 05:32:25;;;;;;;9.30;6.63;;;19.50;99.90;;;;;;5073526;28;20556;-74
2021/07/04 05:35:12;;;;;;;6.20;5.60;;;19.50;99.90;;;;;;5072812;28;20484;-73
2021/07/04 05:37:57;;;;;;;8.57;6.30;;;19.50;99.90;;;;;;5073338;28;20438;-74
2021/07/04 05:40:43;;;;;;;7.20;6.50;;;19.50;99.90;;;;;;5077591;28;20477;-73
2021/07/04 05:43:29;;;;;;;10.00;6.30;;;19.60;99.90;;;;;;5073301;28;20438;-74
2021/07/04 05:46:14;;;;;;;7.97;7.17;;;19.70;99.90;;;;;;5072979;28;21226;-74
2021/07/04 05:49:02;;;;;;;7.20;6.30;;;19.70;99.90;;;;;;5073462;28;20422;-73
2021/07/04 05:51:48;;;;;;;6.70;5.80;;;19.80;99.90;;;;;;5073232;28;20819;-74
2021/07/04 05:54:34;;;;;;;7.33;6.40;;;20.00;99.90;;;;;;5072377;28;20462;-73
2021/07/04 05:57:19;;;;;;;7.53;6.73;;;20.10;99.90;;;;;;5072738;28;20414;-73
2021/07/04 06:00:07;;;;;;;7.33;6.63;;;20.30;99.90;;;;;;5073036;28;20985;-73
2021/07/04 06:02:53;;;;;;;9.23;8.27;;;20.50;99.90;;;;;;5072856;28;20529;-73
2021/07/04 06:05:40;;;;;;;7.53;6.73;;;20.60;99.90;;;;;;5072467;28;20498;-73
2021/07/04 06:08:25;;;;;;;7.53;6.73;;;20.70;99.90;;;;;;5072597;28;20462;-74
2021/07/04 06:11:11;;;;;;;8.10;6.97;;;20.80;99.90;;;;;;5069439;28;20943;-74
2021/07/04 06:13:57;;;;;;;8.93;6.87;;;20.80;99.90;;;;;;5072401;28;20962;-74
2021/07/04 06:16:42;;;;;;;16.27;7.90;;;20.70;99.90;;;;;;5071789;28;20505;-73
2021/07/04 06:19:29;;;;;;;9.10;7.70;;;20.70;99.90;;;;;;5072100;28;21057;-73
2021/07/04 06:22:16;;;;;;;8.73;7.70;;;20.80;99.90;;;;;;5065397;28;20799;-74
2021/07/04 06:25:01;;;;;;;9.10;8.03;;;20.90;99.90;;;;;;5057972;28;20461;-73
2021/07/04 06:27:47;;;;;;;8.17;6.93;;;20.90;99.90;;;;;;5072492;28;20562;-75
2021/07/04 06:30:33;;;;;;;8.83;7.80;;;20.90;99.90;;;;;;5072130;28;20471;-74
2021/07/04 06:33:19;;;;;;;11.00;7.40;;;20.70;99.90;;;;;;5052532;28;20807;-73
2021/07/04 06:36:05;;;;;;;8.93;7.80;;;20.80;99.90;;;;;;5066218;28;20581;-74
2021/07/04 06:38:52;;;;;;;9.07;7.30;;;20.90;99.90;;;;;;5073894;28;20446;-73
2021/07/04 06:41:37;;;;;;;11.30;8.03;;;20.80;99.90;;;;;;5071752;28;20424;-74
2021/07/04 06:44:23;;;;;;;8.97;7.50;;;20.80;99.90;;;;;;5071728;28;20445;-74
2021/07/04 06:47:09;;;;;;;9.67;7.90;;;20.70;99.90;;;;;;5052576;28;20378;-73
2021/07/04 06:49:54;;;;;;;10.10;7.70;;;20.80;99.90;;;;;;5062743;28;20949;-74
2021/07/04 06:52:40;;;;;;;8.07;7.27;;;20.90;99.90;;;;;;5071884;28;20949;-73
2021/07/04 06:55:27;;;;;;;11.30;7.53;;;20.90;99.90;;;;;;5071082;28;20438;-74
2021/07/04 06:58:13;;;;;;;8.00;7.20;;;20.90;99.90;;;;;;5072271;28;20419;-74
2021/07/04 07:00:58;;;;;;;9.30;7.87;;;21.00;99.90;;;;;;5071029;28;20447;-74
2021/07/04 07:03:44;;;;;;;10.57;8.03;;;21.20;99.90;;;;;;5071518;28;20867;-74
2021/07/04 07:06:30;;;;;;;9.07;8.10;;;21.10;99.90;;;;;;5071261;28;20796;-74
2021/07/04 07:09:15;;;;;;;10.53;7.60;;;21.20;99.90;;;;;;5070688;28;20436;-73
2021/07/04 07:12:02;;;;;;;10.90;7.60;;;21.40;99.90;;;;;;5066416;28;20424;-74
2021/07/04 07:14:48;;;;;;;11.67;7.93;;;21.40;99.90;;;;;;5052018;28;20411;-74
2021/07/04 07:17:33;;;;;;;8.60;7.00;;;21.40;99.90;;;;;;5071301;28;20428;-74
2021/07/04 07:20:19;;;;;;;9.50;8.27;;;21.40;99.90;;;;;;5071158;28;20452;-74
2021/07/04 07:23:05;;;;;;;10.33;8.20;;;21.40;99.90;;;;;;5070900;28;20427;-75
2021/07/04 07:25:51;;;;;;;8.47;7.57;;;21.40;99.90;;;;;;5071240;28;20490;-74
2021/07/04 07:28:38;;;;;;;7.87;7.07;;;21.50;99.90;;;;;;5071216;28;20439;-74
2021/07/04 07:31:23;;;;;;;9.53;7.57;;;21.50;99.90;;;;;;5071369;28;20772;-74
2021/07/04 07:34:09;;;;;;;10.83;8.33;;;21.50;99.90;;;;;;5071461;28;20439;-74
2021/07/04 07:36:54;;;;;;;8.37;7.47;;;21.70;99.90;;;;;;5070769;28;20516;-73
2021/07/04 07:39:40;;;;;;;15.10;8.13;;;21.90;99.90;;;;;;5071137;28;20996;-74
2021/07/04 07:42:26;;;;;;;7.97;7.17;;;22.00;99.90;;;;;;5071071;28;20558;-74
2021/07/04 07:45:14;;;;;;;11.10;8.07;;;22.10;99.90;;;;;;5070385;28;20444;-74
2021/07/04 07:47:59;;;;;;;20.73;7.70;;;22.20;99.90;;;;;;5071102;28;20443;-75
2021/07/04 07:50:45;;;;;;;8.37;7.47;;;22.10;99.90;;;;;;5070771;28;20638;-74
2021/07/04 07:53:31;;;;;;;9.10;7.63;;;22.00;99.90;;;;;;5086229;22;20452;-73
2021/07/04 07:56:17;;;;;;;9.27;7.90;;;22.10;99.90;;;;;;5030463;28;20451;-71
2021/07/04 07:59:02;;;;;;;8.30;7.50;;;22.30;99.90;;;;;;5023258;28;20528;-71
2021/07/04 08:01:49;;;;;;;10.97;7.30;;;22.50;99.90;;;;;;5030560;28;20425;-70
2021/07/04 08:04:36;;;;;;;9.10;7.77;;;22.60;99.90;;;;;;5030434;28;20420;-70
2021/07/04 08:07:22;;;;;;;8.73;7.87;;;22.80;99.90;;;;;;5031044;28;20422;-70
2021/07/04 08:10:08;;;;;;;13.57;8.60;;;22.90;99.90;;;;;;5035138;28;20456;-71
2021/07/04 08:12:55;;;;;;;9.37;7.40;;;23.00;99.90;;;;;;5024929;28;20528;-70
2021/07/04 08:15:41;;;;;;;8.87;7.33;;;23.10;99.90;;;;;;5030660;28;20537;-70
2021/07/04 08:18:27;;;;;;;8.67;7.00;;;23.10;99.90;;;;;;5030762;28;20575;-71
2021/07/04 08:21:13;;;;;;;9.07;8.17;;;23.10;99.90;;;;;;5030339;28;20449;-70
2021/07/04 08:23:59;;;;;;;11.30;7.97;;;23.10;99.90;;;;;;5030373;28;20990;-70
2021/07/04 08:26:45;;;;;;;9.53;8.40;;;23.20;99.90;;;;;;5030631;28;20479;-70
2021/07/04 08:29:30;;;;;;;10.07;8.30;;;23.20;99.90;;;;;;5020455;28;20458;-70
2021/07/04 08:32:16;;;;;;;10.90;8.17;;;23.20;99.90;;;;;;5015139;28;20421;-70
2021/07/04 08:35:05;;;;;;;8.43;7.63;;;23.20;99.90;;;;;;5019798;28;20960;-70
2021/07/04 08:37:50;;;;;;;8.90;8.00;;;23.30;99.90;;;;;;5034586;28;20446;-70
2021/07/04 08:40:37;;;;;;;9.13;7.90;;;23.20;99.90;;;;;;5038681;28;20464;-70
2021/07/04 08:43:28;;;;;;;8.87;8.03;;;23.20;99.90;;;;;;5034298;28;20963;-70
2021/07/04 08:46:14;;;;;;;11.30;8.27;;;23.30;99.90;;;;;;5034330;28;20438;-71
2021/07/04 08:48:59;;;;;;;7.90;7.10;;;23.40;99.90;;;;;;5034325;28;20461;-71
2021/07/04 08:51:47;;;;;;;9.03;7.57;;;23.40;99.90;;;;;;5033889;28;21067;-71
2021/07/04 08:54:33;;;;;;;8.93;7.90;;;23.50;99.90;;;;;;5032780;28;20448;-71
2021/07/04 08:57:18;;;;;;;8.93;7.20;;;23.40;99.90;;;;;;5031052;28;20971;-71
2021/07/04 09:00:06;;;;;;;8.83;7.93;;;23.60;99.90;;;;;;5031764;28;21026;-70
2021/07/04 09:02:52;;;;;;;8.80;7.63;;;23.80;99.90;;;;;;5018996;28;20438;-71
2021/07/04 09:05:43;;;;;;;15.93;8.37;;;23.80;99.90;;;;;;5032714;28;20886;-70
2021/07/04 09:08:30;;;;;;;14.80;7.53;;;23.70;99.90;;;;;;5029811;28;20450;-71
2021/07/04 09:11:18;;;;;;;8.73;7.83;;;23.70;99.90;;;;;;5031168;28;20508;-71
2021/07/04 09:14:07;;;;;;;9.20;8.30;;;23.70;99.90;;;;;;5032320;28;20461;-71
2021/07/04 09:16:52;;;;;;;10.90;8.50;;;23.80;99.90;;;;;;5033734;28;20943;-70
2021/07/04 09:19:40;;;;;;;8.83;7.83;;;23.80;99.90;;;;;;5014186;28;20927;-71
2021/07/04 09:22:28;;;;;;;9.30;8.20;;;23.80;99.90;;;;;;5017158;28;20955;-70
2021/07/04 09:25:17;;;;;;;11.33;8.37;;;23.70;99.90;;;;;;5033041;28;21005;-70
2021/07/04 09:28:06;;;;;;;12.00;8.40;;;23.60;99.90;;;;;;5033742;28;20435;-70
2021/07/04 09:30:55;;;;;;;9.67;8.27;;;23.60;99.90;;;;;;5033972;28;20472;-71
2021/07/04 09:33:40;;;;;;;8.07;7.27;;;23.70;99.90;;;;;;5033576;28;20569;-71
2021/07/04 09:36:28;;;;;;;9.53;8.30;;;23.70;99.90;;;;;;5033545;28;20418;-71
2021/07/04 09:39:18;;;;;;;8.50;7.60;;;23.80;99.90;;;;;;5037700;28;20468;-70
2021/07/04 09:42:11;;;;;;;8.97;8.03;;;23.80;99.90;;;;;;5032890;28;20831;-70
2021/07/04 09:44:57;;;;;;;11.30;8.40;;;24.00;99.90;;;;;;5032084;28;20446;-70
2021/07/04 09:47:43;;;;;;;7.80;7.00;;;24.00;99.90;;;;;;5033219;28;22559;-70
2021/07/04 09:50:28;;;;;;;9.17;6.80;;;24.10;99.90;;;;;;5033781;28;20426;-70
2021/07/04 09:53:16;;;;;;;7.90;7.10;;;24.20;99.90;;;;;;5033279;28;20447;-70
2021/07/04 09:56:09;;;;;;;7.50;6.70;;;24.20;99.90;;;;;;5033420;28;20770;-70
2021/07/04 09:58:58;;;;;;;9.10;7.47;;;24.40;99.90;;;;;;5030068;28;20463;-71
2021/07/04 10:01:46;;;;;;;7.73;6.60;;;24.60;99.90;;;;;;5032157;28;20474;-72
2021/07/04 10:04:35;;;;;;;8.87;7.00;;;24.80;99.90;;;;;;5030974;28;21002;-71
2021/07/04 10:07:32;;;;;;;7.40;6.60;;;24.90;99.90;;;;;;5032318;28;20603;-71
2021/07/04 10:10:17;;;;;;;9.30;7.33;;;24.80;99.40;;;;;;5037632;28;20439;-70
2021/07/04 10:13:03;;;;;;;8.30;7.50;;;24.60;99.90;;;;;;5027962;28;20412;-69
2021/07/04 10:15:50;;;;;;;9.63;7.30;;;24.60;99.90;;;;;;5032582;28;20937;-70
2021/07/04 10:18:37;;;;;;;7.20;6.50;;;24.40;99.90;;;;;;5032946;28;20430;-70
2021/07/04 10:21:25;;;;;;;8.80;7.43;;;24.30;99.90;;;;;;5032905;28;20470;-70
2021/07/04 10:24:12;;;;;;;8.33;7.40;;;24.40;99.90;;;;;;5032781;28;20911;-70
2021/07/04 10:26:59;;;;;;;8.23;7.40;;;24.20;99.90;;;;;;5032943;28;20393;-70
2021/07/04 10:29:46;;;;;;;8.67;7.70;;;24.20;99.90;;;;;;5032764;28;20518;-70
2021/07/04 10:32:33;;;;;;;13.73;8.10;;;24.10;99.90;;;;;;5031937;28;20451;-70
2021/07/04 10:35:20;;;;;;;9.93;7.70;;;24.10;99.90;;;;;;5032616;28;20455;-70
2021/07/04 10:38:14;;;;;;;12.03;8.20;;;24.20;99.90;;;;;;5031604;28;20457;-70
2021/07/04 10:41:06;;;;;;;12.27;7.50;;;24.30;99.90;;;;;;5036826;28;20814;-70
2021/07/04 10:44:04;;;;;;;10.10;6.90;;;24.40;99.90;;;;;;5012459;28;20965;-70
2021/07/04 10:47:05;;;;;;;11.20;7.30;;;24.50;99.90;;;;;;5021729;28;20899;-70
2021/07/04 10:50:08;;;;;;;8.90;7.47;;;24.60;99.90;;;;;;5012628;28;20427;-70
2021/07/04 10:52:54;;;;;;;8.47;6.33;;;24.70;99.90;;;;;;5026988;28;20465;-70
2021/07/04 10:55:40;;;;;;;8.30;6.83;;;24.80;99.90;;;;;;5011907;28;20459;-70
2021/07/04 10:58:26;;;;;;;7.47;6.77;;;24.80;99.90;;;;;;5020215;28;20438;-70
2021/07/04 11:01:50;;;;;;;7.53;6.13;;;24.80;99.90;;;;;;5030316;28;20478;-70
2021/07/04 11:04:53;;;;;;;7.70;6.90;;;24.60;99.90;;;;;;5031737;28;20466;-70
2021/07/04 11:08:10;;;;;;;10.17;7.50;;;24.40;99.90;;;;;;5030220;28;20991;-70
2021/07/04 11:11:01;;;;;;;11.30;6.80;;;24.30;99.90;;;;;;5031037;28;20848;-70
2021/07/04 11:13:50;;;;;;;8.17;7.10;;;24.20;99.90;;;;;;5012364;28;20807;-70
2021/07/04 11:16:35;;;;;;;12.50;6.63;;;24.10;99.90;;;;;;5011766;28;20414;-70
2021/07/04 11:19:21;;;;;;;6.70;5.70;;;24.10;99.90;;;;;;5012645;28;20443;-69
2021/07/04 11:22:07;;;;;;;10.93;5.67;;;24.00;99.90;;;;;;5011952;28;20561;-70
2021/07/04 11:25:17;;;;;;;8.00;6.53;;;24.00;99.90;;;;;;5011868;28;20421;-69
2021/07/04 11:28:28;;;;;;;6.00;5.40;;;23.90;99.90;;;;;;5012199;28;20805;-69
2021/07/04 11:31:32;;;;;;;7.67;5.50;;;23.90;99.90;;;;;;5012092;28;20394;-70
2021/07/04 11:34:18;;;;;;;9.40;5.10;;;23.80;99.90;;;;;;5011780;28;20442;-69
2021/07/04 11:37:04;;;;;;;6.00;5.40;;;23.80;99.90;;;;;;5011909;28;20426;-69
2021/07/04 11:40:00;;;;;;;6.63;5.87;;;23.70;99.90;;;;;;5028961;28;20453;-70
2021/07/04 11:42:45;;;;;;;6.20;5.60;;;23.70;99.90;;;;;;5024461;28;20539;-70
2021/07/04 11:45:32;;;;;;;6.60;5.10;;;23.70;99.90;;;;;;5030418;28;20915;-70
2021/07/04 11:48:18;;;;;;;6.17;5.10;;;23.70;99.90;;;;;;5011530;28;20912;-70
2021/07/04 11:51:06;;;;;;;9.13;5.90;;;23.80;99.90;;;;;;5011935;28;20437;-70
2021/07/04 11:53:54;;;;;;;6.73;5.83;;;23.60;99.90;;;;;;5020576;28;20528;-70
2021/07/04 11:56:42;;;;;;;6.40;5.40;;;23.60;99.90;;;;;;5031331;28;20797;-70
2021/07/04 11:59:29;;;;;;;7.30;6.00;;;23.50;99.90;;;;;;5030144;28;20532;-69
2021/07/04 12:02:14;;;;;;;8.63;6.00;;;23.40;99.90;;;;;;5031339;28;20470;-70
2021/07/04 12:05:10;;;;;;;6.10;5.47;;;23.30;99.90;;;;;;5029061;28;20556;-70
2021/07/04 12:07:56;;;;;;;11.43;6.00;;;23.20;99.90;;;;;;5030263;28;20481;-70
2021/07/04 12:10:48;;;;;;;10.10;5.87;;;23.20;99.90;;;;;;5035700;28;20429;-70
2021/07/04 12:13:36;;;;;;;6.87;6.17;;;23.00;99.90;;;;;;5030896;28;20397;-70
2021/07/04 12:16:22;;;;;;;5.07;4.50;;;23.00;99.90;;;;;;5030818;28;20400;-70
2021/07/04 12:19:07;;;;;;;5.73;3.80;;;22.80;99.90;;;;;;5031245;28;20425;-70
2021/07/04 12:21:53;;;;;;;4.57;3.40;;;22.60;99.90;;;;;;5031022;28;20616;-70
2021/07/04 12:24:41;;;;;;;6.00;3.67;;;22.40;99.90;;;;;;5030726;28;20452;-70
2021/07/04 12:27:38;;;;;;;5.17;3.90;;;22.30;99.90;;;;;;5031262;28;20432;-70
2021/07/04 12:30:27;;;;;;;4.80;3.00;;;22.00;99.90;;;;;;5030827;28;20430;-70
2021/07/04 12:33:14;;;;;;;5.60;3.00;;;21.80;99.90;;;;;;5031105;28;20414;-70
2021/07/04 12:36:05;;;;;;;4.17;2.90;;;21.60;99.90;;;;;;5030533;28;20400;-70
2021/07/04 12:38:52;;;;;;;6.90;3.17;;;21.40;99.90;;;;;;5032687;28;20472;-70
2021/07/04 12:41:40;;;;;;;5.00;3.20;;;21.20;99.90;;;;;;5022912;28;20448;-70
2021/07/04 12:44:25;;;;;;;4.33;2.47;;;21.10;99.90;;;;;;5030570;28;20498;-70
2021/07/04 12:47:14;;;;;;;4.70;3.33;;;20.80;99.90;;;;;;5030912;28;20560;-70
2021/07/04 12:50:06;;;;;;;3.63;2.80;;;20.80;99.90;;;;;;5030796;28;20511;-70
2021/07/04 12:52:57;;;;;;;3.47;2.63;;;20.50;99.90;;;;;;5031085;28;20484;-70
2021/07/04 12:55:51;;;;;;;6.67;3.10;;;20.20;99.90;;;;;;5030043;28;20504;-70
2021/07/04 12:58:40;;;;;;;5.17;3.10;;;20.30;99.90;;;;;;5030828;28;20995;-70
2021/07/04 13:01:27;;;;;;;3.87;2.53;;;20.40;99.90;;;;;;5030491;28;20548;-70
2021/07/04 13:04:14;;;;;;;4.40;2.63;;;20.60;99.90;;;;;;5030615;28;20442;-70
2021/07/04 13:07:02;;;;;;;4.03;3.00;;;20.60;99.90;;;;;;5030647;28;20565;-70
2021/07/04 13:09:48;;;;;;;4.27;2.80;;;20.70;99.90;;;;;;5033864;28;20508;-70
2021/07/04 13:12:37;;;;;;;3.20;2.70;;;20.70;99.90;;;;;;5030560;28;20464;-70
2021/07/04 13:15:23;;;;;;;3.63;2.80;;;20.80;99.90;;;;;;5030182;28;20436;-70
2021/07/04 13:18:24;;;;;;;4.27;3.17;;;20.70;99.90;;;;;;5033832;28;20541;-70
2021/07/04 13:21:27;;;;;;;5.97;2.47;;;20.60;99.90;;;;;;5034012;28;20492;-70
2021/07/04 13:24:18;;;;;;;5.20;2.73;;;20.60;99.90;;;;;;5033927;28;20520;-70
2021/07/04 13:27:17;;;;;;;3.47;2.60;;;20.70;99.90;;;;;;5033844;28;20433;-70
2021/07/04 13:30:09;;;;;;;3.40;2.50;;;20.70;99.90;;;;;;5033964;28;20467;-70
2021/07/04 13:32:58;;;;;;;3.50;2.80;;;20.80;99.90;;;;;;5033732;28;20416;-70
2021/07/04 13:35:45;;;;;;;4.00;2.70;;;20.80;99.90;;;;;;5033724;28;20468;-70
2021/07/04 13:38:32;;;;;;;4.70;3.13;;;20.70;99.90;;;;;;5033636;28;20452;-70
2021/07/04 13:41:18;;;;;;;6.20;2.40;;;20.80;99.90;;;;;;5031028;28;20409;-70
2021/07/04 13:44:04;;;;;;;3.93;2.63;;;20.70;99.90;;;;;;5033338;28;20483;-70
2021/07/04 13:46:49;;;;;;;3.13;2.17;;;20.70;99.90;;;;;;5033316;28;20424;-70
2021/07/04 13:49:35;;;;;;;3.20;2.50;;;20.70;99.90;;;;;;5033609;28;20426;-70
2021/07/04 13:52:21;;;;;;;3.13;2.63;;;20.70;99.90;;;;;;5033319;28;20424;-70
2021/07/04 13:55:09;;;;;;;4.00;2.60;;;20.70;99.90;;;;;;5068856;22;20502;-75
2021/07/04 13:57:55;;;;;;;3.17;2.30;;;20.80;99.90;;;;;;5073356;28;20505;-74
2021/07/04 14:00:43;;;;;;;11.77;3.27;;;20.90;99.90;;;;;;5073644;28;20536;-74
2021/07/04 14:03:29;;;;;;;3.40;2.70;;;20.90;99.90;;;;;;5073015;28;20982;-74
2021/07/04 14:06:14;;;;;;;3.73;2.67;;;20.90;99.90;;;;;;5051761;28;20419;-74
2021/07/04 14:09:00;;;;;;;4.33;2.83;;;21.00;99.90;;;;;;5054823;28;20423;-75
2021/07/04 14:11:47;;;;;;;3.77;2.77;;;21.20;99.90;;;;;;5046192;28;21087;-74
2021/07/04 14:14:33;;;;;;;3.60;2.70;;;21.30;99.90;;;;;;5052394;28;20932;-75
2021/07/04 14:17:19;;;;;;;4.00;2.97;;;21.40;99.90;;;;;;5052943;28;20428;-75
2021/07/04 14:20:06;;;;;;;3.33;2.57;;;21.30;99.90;;;;;;5052866;28;20530;-75
2021/07/04 14:22:53;;;;;;;3.43;2.67;;;21.40;99.90;;;;;;5052861;28;20822;-74
2021/07/04 14:25:38;;;;;;;3.10;2.53;;;21.50;99.90;;;;;;5052633;28;21003;-75
2021/07/04 14:28:25;;;;;;;2.67;2.10;;;21.60;99.90;;;;;;5052614;28;20472;-75
2021/07/04 14:31:11;;;;;;;3.37;2.60;;;21.80;99.90;;;;;;5052740;28;20437;-75